Weather at Tatoi Airport

Public forecast

Using degrees Celsius for public forecast. Weather courtesy of forecast.io.

Closest aviation weather report (METAR) to Tatoi Airport

Closest report is Elefsis Airport, 11.1 nm (20.6 km) WSW. Retrieved 2022/01/29 06:50 UTC (10 minutes ago):

LGEL 290650Z 36013KT 9999 FEW025 BKN070 09/01 Q1017

Closest aviation forecast (TAF) to Tatoi Airport

Closest forecast is Elefsis Airport, 11.1 nm (20.6 km) WSW. Retrieved 2022/01/29 06:12 UTC (48 minutes ago):

TAF LGEL 290500Z 2906/3006 36012KT 9999 SCT020 BKN070 TEMPO 2906/3003 36015G25KT BKN025 BKN070 PROB40 TEMPO 2909/2924 5000 RA SCT012 FEW018TCU BKN020 PROB30 TEMPO 2912/2924 4000 TSRA SCT010 FEW018CB BKN020 OVC070